sensor_id;sensor_type;location;lat;lon;timestamp;P1;durP1;ratioP1;P2;durP2;ratioP2
6665;SDS011;3369;49.906;8.598;2023-08-20T00:01:35;3.70;;;3.40;;
6665;SDS011;3369;49.906;8.598;2023-08-20T00:04:01;4.38;;;3.97;;
6665;SDS011;3369;49.906;8.598;2023-08-20T00:06:27;3.70;;;3.40;;
6665;SDS011;3369;49.906;8.598;2023-08-20T00:08:53;3.65;;;3.45;;
6665;SDS011;3369;49.906;8.598;2023-08-20T00:11:18;3.97;;;3.67;;
6665;SDS011;3369;49.906;8.598;2023-08-20T00:13:44;3.25;;;3.05;;
6665;SDS011;3369;49.906;8.598;2023-08-20T00:16:10;3.33;;;3.03;;
6665;SDS011;3369;49.906;8.598;2023-08-20T00:18:37;3.80;;;3.50;;
6665;SDS011;3369;49.906;8.598;2023-08-20T00:21:03;4.07;;;3.75;;
6665;SDS011;3369;49.906;8.598;2023-08-20T00:23:29;4.43;;;4.03;;
6665;SDS011;3369;49.906;8.598;2023-08-20T00:25:55;4.22;;;3.92;;
6665;SDS011;3369;49.906;8.598;2023-08-20T00:28:21;4.15;;;3.75;;
6665;SDS011;3369;49.906;8.598;2023-08-20T00:30:47;3.35;;;3.08;;
6665;SDS011;3369;49.906;8.598;2023-08-20T00:33:14;4.55;;;3.97;;
6665;SDS011;3369;49.906;8.598;2023-08-20T00:35:40;4.10;;;3.70;;
6665;SDS011;3369;49.906;8.598;2023-08-20T00:38:05;4.20;;;3.80;;
6665;SDS011;3369;49.906;8.598;2023-08-20T00:40:31;4.10;;;3.80;;
6665;SDS011;3369;49.906;8.598;2023-08-20T00:42:57;3.80;;;3.60;;
6665;SDS011;3369;49.906;8.598;2023-08-20T00:45:23;3.83;;;3.53;;
6665;SDS011;3369;49.906;8.598;2023-08-20T00:47:49;4.00;;;3.70;;
6665;SDS011;3369;49.906;8.598;2023-08-20T00:50:16;3.75;;;3.45;;
6665;SDS011;3369;49.906;8.598;2023-08-20T00:52:42;3.78;;;3.47;;
6665;SDS011;3369;49.906;8.598;2023-08-20T00:55:08;4.05;;;3.75;;
6665;SDS011;3369;49.906;8.598;2023-08-20T00:57:39;4.18;;;3.85;;
6665;SDS011;3369;49.906;8.598;2023-08-20T01:00:05;4.03;;;3.72;;
6665;SDS011;3369;49.906;8.598;2023-08-20T01:02:33;5.30;;;4.53;;
6665;SDS011;3369;49.906;8.598;2023-08-20T01:04:59;4.40;;;4.10;;
6665;SDS011;3369;49.906;8.598;2023-08-20T01:13:17;4.70;;;4.30;;
6665;SDS011;3369;49.906;8.598;2023-08-20T01:15:43;4.38;;;3.97;;
6665;SDS011;3369;49.906;8.598;2023-08-20T01:18:09;4.72;;;4.32;;
6665;SDS011;3369;49.906;8.598;2023-08-20T01:20:41;4.88;;;4.47;;
6665;SDS011;3369;49.906;8.598;2023-08-20T01:29:20;5.15;;;4.15;;
6665;SDS011;3369;49.906;8.598;2023-08-20T01:31:46;5.15;;;4.68;;
6665;SDS011;3369;49.906;8.598;2023-08-20T01:34:13;4.70;;;4.30;;
6665;SDS011;3369;49.906;8.598;2023-08-20T01:36:39;5.07;;;4.57;;
6665;SDS011;3369;49.906;8.598;2023-08-20T01:39:04;5.07;;;4.60;;
6665;SDS011;3369;49.906;8.598;2023-08-20T01:41:30;5.18;;;4.78;;
6665;SDS011;3369;49.906;8.598;2023-08-20T01:43:56;4.27;;;3.97;;
6665;SDS011;3369;49.906;8.598;2023-08-20T01:46:21;5.13;;;4.72;;
6665;SDS011;3369;49.906;8.598;2023-08-20T01:48:47;4.93;;;4.45;;
6665;SDS011;3369;49.906;8.598;2023-08-20T01:51:13;4.93;;;4.53;;
6665;SDS011;3369;49.906;8.598;2023-08-20T01:53:38;5.77;;;4.90;;
6665;SDS011;3369;49.906;8.598;2023-08-20T01:56:04;7.87;;;6.53;;
6665;SDS011;3369;49.906;8.598;2023-08-20T01:58:35;7.70;;;6.50;;
6665;SDS011;3369;49.906;8.598;2023-08-20T02:01:01;6.93;;;5.65;;
6665;SDS011;3369;49.906;8.598;2023-08-20T02:03:27;5.97;;;5.40;;
6665;SDS011;3369;49.906;8.598;2023-08-20T02:05:53;5.77;;;5.27;;
6665;SDS011;3369;49.906;8.598;2023-08-20T02:08:19;4.50;;;4.10;;
6665;SDS011;3369;49.906;8.598;2023-08-20T02:10:45;5.37;;;4.97;;
6665;SDS011;3369;49.906;8.598;2023-08-20T02:13:10;5.60;;;5.10;;
6665;SDS011;3369;49.906;8.598;2023-08-20T02:15:36;5.10;;;4.70;;
6665;SDS011;3369;49.906;8.598;2023-08-20T02:18:02;4.80;;;4.40;;
6665;SDS011;3369;49.906;8.598;2023-08-20T02:20:28;4.40;;;4.10;;
6665;SDS011;3369;49.906;8.598;2023-08-20T02:22:54;4.77;;;4.37;;
6665;SDS011;3369;49.906;8.598;2023-08-20T02:25:19;4.17;;;3.87;;
6665;SDS011;3369;49.906;8.598;2023-08-20T02:27:45;4.47;;;3.97;;
6665;SDS011;3369;49.906;8.598;2023-08-20T02:30:10;4.43;;;4.13;;
6665;SDS011;3369;49.906;8.598;2023-08-20T02:32:38;4.23;;;3.93;;
6665;SDS011;3369;49.906;8.598;2023-08-20T02:35:04;4.50;;;4.17;;
6665;SDS011;3369;49.906;8.598;2023-08-20T02:37:31;4.00;;;3.70;;
6665;SDS011;3369;49.906;8.598;2023-08-20T02:39:57;4.50;;;4.20;;
6665;SDS011;3369;49.906;8.598;2023-08-20T02:42:22;4.40;;;4.00;;
6665;SDS011;3369;49.906;8.598;2023-08-20T02:44:48;4.20;;;3.90;;
6665;SDS011;3369;49.906;8.598;2023-08-20T02:47:14;4.13;;;3.83;;
6665;SDS011;3369;49.906;8.598;2023-08-20T02:49:39;4.50;;;4.10;;
6665;SDS011;3369;49.906;8.598;2023-08-20T02:52:05;4.50;;;4.10;;
6665;SDS011;3369;49.906;8.598;2023-08-20T02:54:30;4.70;;;4.30;;
6665;SDS011;3369;49.906;8.598;2023-08-20T02:56:57;5.60;;;4.97;;
6665;SDS011;3369;49.906;8.598;2023-08-20T02:59:23;5.80;;;5.30;;
6665;SDS011;3369;49.906;8.598;2023-08-20T03:01:49;9.60;;;5.75;;
6665;SDS011;3369;49.906;8.598;2023-08-20T03:04:15;6.60;;;5.67;;
6665;SDS011;3369;49.906;8.598;2023-08-20T03:06:40;5.50;;;5.00;;
6665;SDS011;3369;49.906;8.598;2023-08-20T03:09:06;7.00;;;5.70;;
6665;SDS011;3369;49.906;8.598;2023-08-20T03:11:31;5.43;;;4.93;;
6665;SDS011;3369;49.906;8.598;2023-08-20T03:13:57;7.20;;;5.00;;
6665;SDS011;3369;49.906;8.598;2023-08-20T03:16:22;5.03;;;4.57;;
6665;SDS011;3369;49.906;8.598;2023-08-20T03:18:48;5.27;;;4.87;;
6665;SDS011;3369;49.906;8.598;2023-08-20T03:21:14;4.73;;;4.33;;
6665;SDS011;3369;49.906;8.598;2023-08-20T03:23:39;4.50;;;4.20;;
6665;SDS011;3369;49.906;8.598;2023-08-20T03:26:05;5.33;;;4.57;;
6665;SDS011;3369;49.906;8.598;2023-08-20T03:28:30;4.43;;;4.03;;
6665;SDS011;3369;49.906;8.598;2023-08-20T03:30:59;6.90;;;4.13;;
6665;SDS011;3369;49.906;8.598;2023-08-20T03:33:26;4.90;;;4.20;;
6665;SDS011;3369;49.906;8.598;2023-08-20T03:35:51;4.80;;;4.40;;
6665;SDS011;3369;49.906;8.598;2023-08-20T03:38:17;4.47;;;4.07;;
6665;SDS011;3369;49.906;8.598;2023-08-20T03:40:43;5.10;;;4.70;;
6665;SDS011;3369;49.906;8.598;2023-08-20T03:43:10;4.47;;;4.17;;
6665;SDS011;3369;49.906;8.598;2023-08-20T03:45:35;4.50;;;4.20;;
6665;SDS011;3369;49.906;8.598;2023-08-20T03:48:01;5.10;;;4.70;;
6665;SDS011;3369;49.906;8.598;2023-08-20T03:50:27;5.20;;;4.77;;
6665;SDS011;3369;49.906;8.598;2023-08-20T03:52:52;4.77;;;4.47;;
6665;SDS011;3369;49.906;8.598;2023-08-20T03:55:18;4.57;;;4.18;;
6665;SDS011;3369;49.906;8.598;2023-08-20T03:57:44;5.13;;;4.73;;
6665;SDS011;3369;49.906;8.598;2023-08-20T04:00:09;5.10;;;4.70;;
6665;SDS011;3369;49.906;8.598;2023-08-20T04:02:37;4.77;;;4.40;;
6665;SDS011;3369;49.906;8.598;2023-08-20T04:05:03;4.50;;;4.20;;
6665;SDS011;3369;49.906;8.598;2023-08-20T04:07:29;4.90;;;4.50;;
6665;SDS011;3369;49.906;8.598;2023-08-20T04:09:55;4.83;;;4.43;;
6665;SDS011;3369;49.906;8.598;2023-08-20T04:12:20;4.37;;;4.07;;
6665;SDS011;3369;49.906;8.598;2023-08-20T04:14:46;6.57;;;4.67;;
6665;SDS011;3369;49.906;8.598;2023-08-20T04:17:12;8.73;;;5.63;;
6665;SDS011;3369;49.906;8.598;2023-08-20T04:19:37;6.20;;;5.60;;
6665;SDS011;3369;49.906;8.598;2023-08-20T04:22:03;6.20;;;5.50;;
6665;SDS011;3369;49.906;8.598;2023-08-20T04:24:28;5.63;;;5.13;;
6665;SDS011;3369;49.906;8.598;2023-08-20T04:26:54;5.60;;;5.10;;
6665;SDS011;3369;49.906;8.598;2023-08-20T04:29:20;5.00;;;4.60;;
6665;SDS011;3369;49.906;8.598;2023-08-20T04:31:45;4.93;;;4.53;;
6665;SDS011;3369;49.906;8.598;2023-08-20T04:34:11;4.77;;;4.33;;
6665;SDS011;3369;49.906;8.598;2023-08-20T04:36:36;4.97;;;4.53;;
6665;SDS011;3369;49.906;8.598;2023-08-20T04:39:02;4.80;;;4.40;;
6665;SDS011;3369;49.906;8.598;2023-08-20T04:41:29;4.70;;;4.30;;
6665;SDS011;3369;49.906;8.598;2023-08-20T04:43:55;4.63;;;4.23;;
6665;SDS011;3369;49.906;8.598;2023-08-20T04:46:20;4.37;;;3.97;;
6665;SDS011;3369;49.906;8.598;2023-08-20T04:48:46;4.30;;;3.87;;
6665;SDS011;3369;49.906;8.598;2023-08-20T04:51:11;5.13;;;4.73;;
6665;SDS011;3369;49.906;8.598;2023-08-20T04:53:37;4.63;;;4.23;;
6665;SDS011;3369;49.906;8.598;2023-08-20T04:56:03;4.63;;;4.23;;
6665;SDS011;3369;49.906;8.598;2023-08-20T04:58:28;5.17;;;4.67;;
6665;SDS011;3369;49.906;8.598;2023-08-20T05:00:54;5.73;;;5.10;;
6665;SDS011;3369;49.906;8.598;2023-08-20T05:03:19;5.30;;;4.80;;
6665;SDS011;3369;49.906;8.598;2023-08-20T05:05:49;4.40;;;4.10;;
6665;SDS011;3369;49.906;8.598;2023-08-20T05:08:15;4.50;;;4.20;;
6665;SDS011;3369;49.906;8.598;2023-08-20T05:10:41;4.10;;;3.80;;
6665;SDS011;3369;49.906;8.598;2023-08-20T05:13:07;4.23;;;3.93;;
6665;SDS011;3369;49.906;8.598;2023-08-20T05:15:33;4.00;;;3.70;;
6665;SDS011;3369;49.906;8.598;2023-08-20T05:17:58;4.87;;;4.47;;
6665;SDS011;3369;49.906;8.598;2023-08-20T05:20:24;4.17;;;3.87;;
6665;SDS011;3369;49.906;8.598;2023-08-20T05:22:50;3.87;;;3.63;;
6665;SDS011;3369;49.906;8.598;2023-08-20T05:25:15;3.90;;;3.60;;
6665;SDS011;3369;49.906;8.598;2023-08-20T05:27:41;3.90;;;3.60;;
6665;SDS011;3369;49.906;8.598;2023-08-20T05:30:06;4.03;;;3.67;;
6665;SDS011;3369;49.906;8.598;2023-08-20T05:32:33;3.70;;;3.50;;
6665;SDS011;3369;49.906;8.598;2023-08-20T05:34:59;3.87;;;3.60;;
6665;SDS011;3369;49.906;8.598;2023-08-20T05:37:24;3.70;;;3.40;;
6665;SDS011;3369;49.906;8.598;2023-08-20T05:39:50;3.50;;;3.30;;
6665;SDS011;3369;49.906;8.598;2023-08-20T05:42:16;3.90;;;3.60;;
6665;SDS011;3369;49.906;8.598;2023-08-20T05:44:41;4.60;;;4.23;;
6665;SDS011;3369;49.906;8.598;2023-08-20T05:47:07;3.97;;;3.67;;
6665;SDS011;3369;49.906;8.598;2023-08-20T05:49:33;4.37;;;3.97;;
6665;SDS011;3369;49.906;8.598;2023-08-20T05:51:58;5.77;;;4.80;;
6665;SDS011;3369;49.906;8.598;2023-08-20T05:54:24;6.90;;;5.23;;
6665;SDS011;3369;49.906;8.598;2023-08-20T05:56:50;4.83;;;4.43;;
6665;SDS011;3369;49.906;8.598;2023-08-20T05:59:15;6.07;;;5.47;;
6665;SDS011;3369;49.906;8.598;2023-08-20T06:01:41;5.13;;;4.70;;
6665;SDS011;3369;49.906;8.598;2023-08-20T06:04:07;5.57;;;5.13;;
6665;SDS011;3369;49.906;8.598;2023-08-20T06:06:34;5.70;;;5.20;;
6665;SDS011;3369;49.906;8.598;2023-08-20T06:09:00;5.57;;;5.10;;
6665;SDS011;3369;49.906;8.598;2023-08-20T06:11:25;6.30;;;5.57;;
6665;SDS011;3369;49.906;8.598;2023-08-20T06:13:51;5.43;;;5.03;;
6665;SDS011;3369;49.906;8.598;2023-08-20T06:16:16;5.40;;;5.00;;
6665;SDS011;3369;49.906;8.598;2023-08-20T06:18:42;6.27;;;5.67;;
6665;SDS011;3369;49.906;8.598;2023-08-20T06:21:08;6.38;;;5.82;;
6665;SDS011;3369;49.906;8.598;2023-08-20T06:23:33;5.63;;;5.17;;
6665;SDS011;3369;49.906;8.598;2023-08-20T06:25:59;6.72;;;6.22;;
6665;SDS011;3369;49.906;8.598;2023-08-20T06:28:25;6.10;;;5.60;;
6665;SDS011;3369;49.906;8.598;2023-08-20T06:30:50;6.15;;;5.60;;
6665;SDS011;3369;49.906;8.598;2023-08-20T06:33:16;6.77;;;6.27;;
6665;SDS011;3369;49.906;8.598;2023-08-20T06:35:41;6.60;;;6.00;;
6665;SDS011;3369;49.906;8.598;2023-08-20T06:38:07;5.18;;;4.88;;
6665;SDS011;3369;49.906;8.598;2023-08-20T06:40:33;5.10;;;4.70;;
6665;SDS011;3369;49.906;8.598;2023-08-20T06:42:58;5.80;;;5.30;;
6665;SDS011;3369;49.906;8.598;2023-08-20T06:45:24;5.40;;;4.85;;
6665;SDS011;3369;49.906;8.598;2023-08-20T06:47:50;4.65;;;4.25;;
6665;SDS011;3369;49.906;8.598;2023-08-20T06:50:15;5.32;;;4.90;;
6665;SDS011;3369;49.906;8.598;2023-08-20T06:52:41;5.63;;;5.22;;
6665;SDS011;3369;49.906;8.598;2023-08-20T06:55:07;7.32;;;5.30;;
6665;SDS011;3369;49.906;8.598;2023-08-20T06:57:33;5.50;;;5.05;;
6665;SDS011;3369;49.906;8.598;2023-08-20T06:59:59;5.35;;;4.95;;
6665;SDS011;3369;49.906;8.598;2023-08-20T07:02:24;5.85;;;5.35;;
6665;SDS011;3369;49.906;8.598;2023-08-20T07:04:50;5.07;;;4.68;;
6665;SDS011;3369;49.906;8.598;2023-08-20T07:07:15;5.60;;;5.20;;
6665;SDS011;3369;49.906;8.598;2023-08-20T07:09:42;5.57;;;5.10;;
6665;SDS011;3369;49.906;8.598;2023-08-20T07:12:08;5.57;;;5.07;;
6665;SDS011;3369;49.906;8.598;2023-08-20T07:14:33;5.38;;;4.97;;
6665;SDS011;3369;49.906;8.598;2023-08-20T07:16:59;5.68;;;5.22;;
6665;SDS011;3369;49.906;8.598;2023-08-20T07:19:27;5.45;;;5.05;;
6665;SDS011;3369;49.906;8.598;2023-08-20T07:21:53;5.38;;;4.97;;
6665;SDS011;3369;49.906;8.598;2023-08-20T07:24:19;4.85;;;4.55;;
6665;SDS011;3369;49.906;8.598;2023-08-20T07:26:50;4.95;;;4.55;;
6665;SDS011;3369;49.906;8.598;2023-08-20T07:29:24;5.35;;;4.95;;
6665;SDS011;3369;49.906;8.598;2023-08-20T07:31:50;5.57;;;5.18;;
6665;SDS011;3369;49.906;8.598;2023-08-20T07:34:16;5.03;;;4.70;;
6665;SDS011;3369;49.906;8.598;2023-08-20T07:36:41;5.75;;;5.35;;
6665;SDS011;3369;49.906;8.598;2023-08-20T07:39:07;5.80;;;5.30;;
6665;SDS011;3369;49.906;8.598;2023-08-20T07:41:33;5.05;;;4.65;;
6665;SDS011;3369;49.906;8.598;2023-08-20T07:43:59;6.22;;;5.50;;
6665;SDS011;3369;49.906;8.598;2023-08-20T07:46:25;5.40;;;5.00;;
6665;SDS011;3369;49.906;8.598;2023-08-20T07:48:51;5.35;;;4.95;;
6665;SDS011;3369;49.906;8.598;2023-08-20T07:51:16;4.97;;;4.50;;
6665;SDS011;3369;49.906;8.598;2023-08-20T07:53:42;5.47;;;5.07;;
6665;SDS011;3369;49.906;8.598;2023-08-20T07:56:07;6.15;;;5.55;;
6665;SDS011;3369;49.906;8.598;2023-08-20T07:58:34;6.47;;;5.97;;
6665;SDS011;3369;49.906;8.598;2023-08-20T08:00:59;6.45;;;5.85;;
6665;SDS011;3369;49.906;8.598;2023-08-20T08:03:25;7.20;;;6.50;;
6665;SDS011;3369;49.906;8.598;2023-08-20T08:05:51;6.65;;;6.05;;
6665;SDS011;3369;49.906;8.598;2023-08-20T08:08:19;6.43;;;5.93;;
6665;SDS011;3369;49.906;8.598;2023-08-20T08:10:45;6.15;;;5.32;;
6665;SDS011;3369;49.906;8.598;2023-08-20T08:13:11;6.35;;;5.55;;
6665;SDS011;3369;49.906;8.598;2023-08-20T08:15:38;6.70;;;5.82;;
6665;SDS011;3369;49.906;8.598;2023-08-20T08:18:03;7.20;;;6.13;;
6665;SDS011;3369;49.906;8.598;2023-08-20T08:20:29;6.20;;;5.60;;
6665;SDS011;3369;49.906;8.598;2023-08-20T08:22:55;5.57;;;5.18;;
6665;SDS011;3369;49.906;8.598;2023-08-20T08:25:20;5.90;;;5.50;;
6665;SDS011;3369;49.906;8.598;2023-08-20T08:27:46;5.60;;;4.93;;
6665;SDS011;3369;49.906;8.598;2023-08-20T08:30:11;5.78;;;5.38;;
6665;SDS011;3369;49.906;8.598;2023-08-20T08:32:37;6.22;;;5.60;;
6665;SDS011;3369;49.906;8.598;2023-08-20T08:35:03;6.03;;;4.85;;
6665;SDS011;3369;49.906;8.598;2023-08-20T08:37:29;5.88;;;5.28;;
6665;SDS011;3369;49.906;8.598;2023-08-20T08:39:54;5.10;;;4.70;;
6665;SDS011;3369;49.906;8.598;2023-08-20T08:42:20;5.80;;;5.30;;
6665;SDS011;3369;49.906;8.598;2023-08-20T08:44:49;5.65;;;5.15;;
6665;SDS011;3369;49.906;8.598;2023-08-20T08:47:15;5.80;;;5.30;;
6665;SDS011;3369;49.906;8.598;2023-08-20T08:49:43;5.60;;;5.10;;
6665;SDS011;3369;49.906;8.598;2023-08-20T08:52:11;6.40;;;5.90;;
6665;SDS011;3369;49.906;8.598;2023-08-20T08:54:37;10.45;;;5.40;;
6665;SDS011;3369;49.906;8.598;2023-08-20T08:57:03;5.75;;;5.35;;
6665;SDS011;3369;49.906;8.598;2023-08-20T08:59:29;7.03;;;5.50;;
6665;SDS011;3369;49.906;8.598;2023-08-20T09:01:54;5.95;;;5.35;;
6665;SDS011;3369;49.906;8.598;2023-08-20T09:04:21;5.75;;;5.25;;
6665;SDS011;3369;49.906;8.598;2023-08-20T09:06:51;6.05;;;5.50;;
6665;SDS011;3369;49.906;8.598;2023-08-20T09:09:20;5.97;;;5.57;;
6665;SDS011;3369;49.906;8.598;2023-08-20T09:11:47;5.95;;;5.45;;
6665;SDS011;3369;49.906;8.598;2023-08-20T09:14:22;6.03;;;5.28;;
6665;SDS011;3369;49.906;8.598;2023-08-20T09:16:59;5.80;;;5.30;;
6665;SDS011;3369;49.906;8.598;2023-08-20T09:19:29;6.28;;;5.78;;
6665;SDS011;3369;49.906;8.598;2023-08-20T09:22:00;5.50;;;5.05;;
6665;SDS011;3369;49.906;8.598;2023-08-20T09:24:26;5.88;;;5.38;;
6665;SDS011;3369;49.906;8.598;2023-08-20T09:26:58;5.70;;;5.30;;
6665;SDS011;3369;49.906;8.598;2023-08-20T09:29:26;5.60;;;5.20;;
6665;SDS011;3369;49.906;8.598;2023-08-20T09:31:59;6.13;;;5.55;;
6665;SDS011;3369;49.906;8.598;2023-08-20T09:34:35;5.43;;;5.03;;
6665;SDS011;3369;49.906;8.598;2023-08-20T09:37:02;6.32;;;5.00;;
6665;SDS011;3369;49.906;8.598;2023-08-20T09:39:28;6.85;;;5.60;;
6665;SDS011;3369;49.906;8.598;2023-08-20T09:41:54;5.53;;;5.10;;
6665;SDS011;3369;49.906;8.598;2023-08-20T09:44:22;6.90;;;5.35;;
6665;SDS011;3369;49.906;8.598;2023-08-20T09:46:48;5.43;;;5.03;;
6665;SDS011;3369;49.906;8.598;2023-08-20T09:49:15;5.63;;;5.22;;
6665;SDS011;3369;49.906;8.598;2023-08-20T09:51:44;5.80;;;5.20;;
6665;SDS011;3369;49.906;8.598;2023-08-20T09:54:21;5.18;;;4.78;;
6665;SDS011;3369;49.906;8.598;2023-08-20T09:56:54;5.60;;;5.10;;
6665;SDS011;3369;49.906;8.598;2023-08-20T09:59:23;5.03;;;4.63;;
6665;SDS011;3369;49.906;8.598;2023-08-20T10:01:50;4.85;;;4.45;;
6665;SDS011;3369;49.906;8.598;2023-08-20T10:04:16;5.55;;;5.05;;
6665;SDS011;3369;49.906;8.598;2023-08-20T10:06:43;4.78;;;4.47;;
6665;SDS011;3369;49.906;8.598;2023-08-20T10:09:09;6.90;;;5.85;;
6665;SDS011;3369;49.906;8.598;2023-08-20T10:11:35;5.57;;;5.18;;
6665;SDS011;3369;49.906;8.598;2023-08-20T10:14:02;5.78;;;5.38;;
6665;SDS011;3369;49.906;8.598;2023-08-20T10:16:28;5.35;;;4.95;;
6665;SDS011;3369;49.906;8.598;2023-08-20T10:18:53;5.07;;;4.68;;
6665;SDS011;3369;49.906;8.598;2023-08-20T10:21:24;5.13;;;4.72;;
6665;SDS011;3369;49.906;8.598;2023-08-20T10:23:51;4.85;;;4.45;;
6665;SDS011;3369;49.906;8.598;2023-08-20T10:26:18;4.63;;;4.22;;
6665;SDS011;3369;49.906;8.598;2023-08-20T10:28:46;6.05;;;4.63;;
6665;SDS011;3369;49.906;8.598;2023-08-20T10:31:12;5.13;;;4.72;;
6665;SDS011;3369;49.906;8.598;2023-08-20T10:36:17;5.00;;;4.60;;
6665;SDS011;3369;49.906;8.598;2023-08-20T10:38:47;4.60;;;4.20;;
6665;SDS011;3369;49.906;8.598;2023-08-20T10:41:14;5.78;;;4.40;;
6665;SDS011;3369;49.906;8.598;2023-08-20T10:43:48;5.13;;;4.65;;
6665;SDS011;3369;49.906;8.598;2023-08-20T10:46:21;7.03;;;4.50;;
6665;SDS011;3369;49.906;8.598;2023-08-20T10:51:25;5.22;;;4.72;;
6665;SDS011;3369;49.906;8.598;2023-08-20T10:54:14;4.30;;;3.90;;
6665;SDS011;3369;49.906;8.598;2023-08-20T10:56:40;4.50;;;4.10;;
6665;SDS011;3369;49.906;8.598;2023-08-20T10:59:17;4.63;;;4.28;;
6665;SDS011;3369;49.906;8.598;2023-08-20T11:01:53;5.53;;;4.40;;
6665;SDS011;3369;49.906;8.598;2023-08-20T11:04:20;4.25;;;3.85;;
6665;SDS011;3369;49.906;8.598;2023-08-20T11:06:52;3.83;;;3.40;;
6665;SDS011;3369;49.906;8.598;2023-08-20T11:09:27;4.80;;;3.75;;
6665;SDS011;3369;49.906;8.598;2023-08-20T11:11:54;4.45;;;4.05;;
6665;SDS011;3369;49.906;8.598;2023-08-20T11:14:20;6.25;;;4.05;;
6665;SDS011;3369;49.906;8.598;2023-08-20T11:16:47;5.20;;;3.72;;
6665;SDS011;3369;49.906;8.598;2023-08-20T11:19:19;3.80;;;3.50;;
6665;SDS011;3369;49.906;8.598;2023-08-20T11:21:46;4.95;;;3.53;;
6665;SDS011;3369;49.906;8.598;2023-08-20T11:24:13;4.20;;;3.78;;
6665;SDS011;3369;49.906;8.598;2023-08-20T11:26:39;4.95;;;3.97;;
6665;SDS011;3369;49.906;8.598;2023-08-20T11:29:06;4.50;;;4.10;;
6665;SDS011;3369;49.906;8.598;2023-08-20T11:31:33;4.03;;;3.70;;
6665;SDS011;3369;49.906;8.598;2023-08-20T11:33:59;3.58;;;3.28;;
6665;SDS011;3369;49.906;8.598;2023-08-20T11:36:27;4.80;;;3.70;;
6665;SDS011;3369;49.906;8.598;2023-08-20T11:38:53;3.97;;;3.67;;
6665;SDS011;3369;49.906;8.598;2023-08-20T11:41:22;3.92;;;3.63;;
6665;SDS011;3369;49.906;8.598;2023-08-20T11:43:48;3.70;;;3.40;;
6665;SDS011;3369;49.906;8.598;2023-08-20T11:46:16;3.72;;;3.42;;
6665;SDS011;3369;49.906;8.598;2023-08-20T11:51:28;5.03;;;4.38;;
6665;SDS011;3369;49.906;8.598;2023-08-20T11:53:54;4.35;;;3.90;;
6665;SDS011;3369;49.906;8.598;2023-08-20T11:56:22;3.80;;;3.50;;
6665;SDS011;3369;49.906;8.598;2023-08-20T11:58:51;4.05;;;3.75;;
6665;SDS011;3369;49.906;8.598;2023-08-20T12:01:18;3.60;;;3.30;;
6665;SDS011;3369;49.906;8.598;2023-08-20T12:03:44;4.28;;;3.97;;
6665;SDS011;3369;49.906;8.598;2023-08-20T12:06:19;6.95;;;3.88;;
6665;SDS011;3369;49.906;8.598;2023-08-20T12:08:46;4.28;;;3.88;;
6665;SDS011;3369;49.906;8.598;2023-08-20T12:11:12;4.97;;;4.22;;
6665;SDS011;3369;49.906;8.598;2023-08-20T12:13:38;4.65;;;4.25;;
6665;SDS011;3369;49.906;8.598;2023-08-20T12:16:03;5.65;;;4.20;;
6665;SDS011;3369;49.906;8.598;2023-08-20T12:18:29;4.47;;;4.07;;
6665;SDS011;3369;49.906;8.598;2023-08-20T12:20:55;4.55;;;4.25;;
6665;SDS011;3369;49.906;8.598;2023-08-20T12:23:20;4.75;;;4.10;;
6665;SDS011;3369;49.906;8.598;2023-08-20T12:25:49;4.20;;;3.90;;
6665;SDS011;3369;49.906;8.598;2023-08-20T12:28:16;4.40;;;4.00;;
6665;SDS011;3369;49.906;8.598;2023-08-20T12:30:42;4.88;;;4.05;;
6665;SDS011;3369;49.906;8.598;2023-08-20T12:33:08;4.68;;;4.25;;
6665;SDS011;3369;49.906;8.598;2023-08-20T12:35:34;4.32;;;3.92;;
6665;SDS011;3369;49.906;8.598;2023-08-20T12:38:00;4.60;;;4.13;;
6665;SDS011;3369;49.906;8.598;2023-08-20T12:40:25;4.18;;;3.78;;
6665;SDS011;3369;49.906;8.598;2023-08-20T12:42:51;4.38;;;4.07;;
6665;SDS011;3369;49.906;8.598;2023-08-20T12:45:16;8.02;;;4.15;;
6665;SDS011;3369;49.906;8.598;2023-08-20T12:47:42;4.43;;;3.80;;
6665;SDS011;3369;49.906;8.598;2023-08-20T12:50:08;4.15;;;3.78;;
6665;SDS011;3369;49.906;8.598;2023-08-20T12:52:34;4.45;;;4.03;;
6665;SDS011;3369;49.906;8.598;2023-08-20T12:54:59;4.35;;;3.90;;
6665;SDS011;3369;49.906;8.598;2023-08-20T12:57:25;4.38;;;4.00;;
6665;SDS011;3369;49.906;8.598;2023-08-20T12:59:51;6.07;;;4.07;;
6665;SDS011;3369;49.906;8.598;2023-08-20T13:02:17;3.83;;;3.53;;
6665;SDS011;3369;49.906;8.598;2023-08-20T13:04:44;4.22;;;3.80;;
6665;SDS011;3369;49.906;8.598;2023-08-20T13:07:10;3.75;;;3.15;;
6665;SDS011;3369;49.906;8.598;2023-08-20T13:09:36;3.38;;;3.15;;
6665;SDS011;3369;49.906;8.598;2023-08-20T13:12:02;3.88;;;3.45;;
6665;SDS011;3369;49.906;8.598;2023-08-20T13:14:30;3.30;;;3.10;;
6665;SDS011;3369;49.906;8.598;2023-08-20T13:16:56;4.03;;;3.10;;
6665;SDS011;3369;49.906;8.598;2023-08-20T13:19:22;3.65;;;3.35;;
6665;SDS011;3369;49.906;8.598;2023-08-20T13:21:48;3.30;;;2.72;;
6665;SDS011;3369;49.906;8.598;2023-08-20T13:24:13;3.28;;;2.97;;
6665;SDS011;3369;49.906;8.598;2023-08-20T13:26:39;3.08;;;2.67;;
6665;SDS011;3369;49.906;8.598;2023-08-20T13:29:04;3.97;;;2.90;;
6665;SDS011;3369;49.906;8.598;2023-08-20T13:31:30;7.57;;;6.93;;
6665;SDS011;3369;49.906;8.598;2023-08-20T13:33:56;5.80;;;5.22;;
6665;SDS011;3369;49.906;8.598;2023-08-20T13:36:21;5.05;;;4.65;;
6665;SDS011;3369;49.906;8.598;2023-08-20T13:38:47;4.35;;;3.97;;
6665;SDS011;3369;49.906;8.598;2023-08-20T13:41:12;4.00;;;3.60;;
6665;SDS011;3369;49.906;8.598;2023-08-20T13:43:38;5.03;;;3.78;;
6665;SDS011;3369;49.906;8.598;2023-08-20T13:46:04;4.07;;;3.70;;
6665;SDS011;3369;49.906;8.598;2023-08-20T13:48:29;3.83;;;3.53;;
6665;SDS011;3369;49.906;8.598;2023-08-20T13:50:55;3.60;;;3.30;;
6665;SDS011;3369;49.906;8.598;2023-08-20T13:53:20;4.22;;;3.20;;
6665;SDS011;3369;49.906;8.598;2023-08-20T13:55:46;3.63;;;3.33;;
6665;SDS011;3369;49.906;8.598;2023-08-20T13:58:12;6.55;;;3.67;;
6665;SDS011;3369;49.906;8.598;2023-08-20T14:00:37;3.67;;;3.38;;
6665;SDS011;3369;49.906;8.598;2023-08-20T14:03:03;3.55;;;3.20;;
6665;SDS011;3369;49.906;8.598;2023-08-20T14:05:29;3.58;;;3.33;;
6665;SDS011;3369;49.906;8.598;2023-08-20T14:07:55;3.80;;;3.38;;
6665;SDS011;3369;49.906;8.598;2023-08-20T14:10:21;3.00;;;2.80;;
6665;SDS011;3369;49.906;8.598;2023-08-20T14:12:47;3.53;;;3.22;;
6665;SDS011;3369;49.906;8.598;2023-08-20T14:15:13;2.67;;;2.47;;
6665;SDS011;3369;49.906;8.598;2023-08-20T14:17:39;4.00;;;3.70;;
6665;SDS011;3369;49.906;8.598;2023-08-20T14:20:05;4.10;;;3.70;;
6665;SDS011;3369;49.906;8.598;2023-08-20T14:22:33;4.05;;;3.50;;
6665;SDS011;3369;49.906;8.598;2023-08-20T14:24:58;3.88;;;3.38;;
6665;SDS011;3369;49.906;8.598;2023-08-20T14:27:24;3.83;;;3.53;;
6665;SDS011;3369;49.906;8.598;2023-08-20T14:29:49;5.60;;;4.25;;
6665;SDS011;3369;49.906;8.598;2023-08-20T14:32:15;3.92;;;3.60;;
6665;SDS011;3369;49.906;8.598;2023-08-20T14:34:41;3.58;;;3.20;;
6665;SDS011;3369;49.906;8.598;2023-08-20T14:37:06;3.83;;;3.55;;
6665;SDS011;3369;49.906;8.598;2023-08-20T14:39:32;4.05;;;3.65;;
6665;SDS011;3369;49.906;8.598;2023-08-20T14:41:58;3.88;;;3.58;;
6665;SDS011;3369;49.906;8.598;2023-08-20T14:44:24;4.20;;;3.17;;
6665;SDS011;3369;49.906;8.598;2023-08-20T14:46:49;3.63;;;3.33;;
6665;SDS011;3369;49.906;8.598;2023-08-20T14:49:15;3.85;;;3.45;;
6665;SDS011;3369;49.906;8.598;2023-08-20T14:51:43;3.42;;;3.13;;
6665;SDS011;3369;49.906;8.598;2023-08-20T14:54:09;4.07;;;3.65;;
6665;SDS011;3369;49.906;8.598;2023-08-20T14:56:34;3.95;;;3.65;;
6665;SDS011;3369;49.906;8.598;2023-08-20T14:59:00;4.50;;;4.05;;
6665;SDS011;3369;49.906;8.598;2023-08-20T15:01:26;3.50;;;3.30;;
6665;SDS011;3369;49.906;8.598;2023-08-20T15:03:51;3.72;;;3.42;;
6665;SDS011;3369;49.906;8.598;2023-08-20T15:06:17;3.65;;;3.35;;
6665;SDS011;3369;49.906;8.598;2023-08-20T15:08:46;3.42;;;3.13;;
6665;SDS011;3369;49.906;8.598;2023-08-20T15:11:12;3.10;;;2.90;;
6665;SDS011;3369;49.906;8.598;2023-08-20T15:13:37;2.97;;;2.75;;
6665;SDS011;3369;49.906;8.598;2023-08-20T15:16:03;3.03;;;2.83;;
6665;SDS011;3369;49.906;8.598;2023-08-20T15:18:29;3.40;;;3.10;;
6665;SDS011;3369;49.906;8.598;2023-08-20T15:20:58;3.67;;;3.35;;
6665;SDS011;3369;49.906;8.598;2023-08-20T15:23:25;3.72;;;3.28;;
6665;SDS011;3369;49.906;8.598;2023-08-20T15:25:51;3.75;;;3.35;;
6665;SDS011;3369;49.906;8.598;2023-08-20T15:28:23;3.65;;;3.38;;
6665;SDS011;3369;49.906;8.598;2023-08-20T15:30:50;3.53;;;3.22;;